Terminal Aerodrome Forecast
Issued by NWS

Current Version | Previous Version | Text Only | Print | Product List | Glossary On
Versions: 1 2 3 4 5 6 7 8 9 10 11 12 13 14 15 16 17
000
FTUS44 KLZK 091723
TAFHOT
TAF
KHOT 091723Z 0918/1018 10003KT P6SM FEW070
     FM100000 10003KT P6SM SCT250
     FM101500 12004KT P6SM FEW050 SCT250=

USA.gov is the U.S. government's official web portal to all federal, state and local government web resources and services.